sensor_id;sensor_type;location;lat;lon;timestamp;temperature;humidity
44223;DHT22;29895;48.804;9.386;2023-05-19T00:01:24;12.90;99.90
44223;DHT22;29895;48.804;9.386;2023-05-19T00:03:51;12.80;99.90
44223;DHT22;29895;48.804;9.386;2023-05-19T00:06:22;12.80;99.90
44223;DHT22;29895;48.804;9.386;2023-05-19T00:09:12;12.70;99.90
44223;DHT22;29895;48.804;9.386;2023-05-19T00:11:39;12.70;99.90
44223;DHT22;29895;48.804;9.386;2023-05-19T00:14:06;12.70;99.90
44223;DHT22;29895;48.804;9.386;2023-05-19T00:16:33;12.70;99.90
44223;DHT22;29895;48.804;9.386;2023-05-19T00:19:00;12.80;99.90
44223;DHT22;29895;48.804;9.386;2023-05-19T00:21:26;12.70;99.90
44223;DHT22;29895;48.804;9.386;2023-05-19T00:23:52;12.70;99.90
44223;DHT22;29895;48.804;9.386;2023-05-19T00:26:18;12.70;99.90
44223;DHT22;29895;48.804;9.386;2023-05-19T00:28:43;12.70;99.90
44223;DHT22;29895;48.804;9.386;2023-05-19T00:31:09;12.70;99.90
44223;DHT22;29895;48.804;9.386;2023-05-19T00:33:35;12.70;99.90
44223;DHT22;29895;48.804;9.386;2023-05-19T00:36:01;12.60;99.90
44223;DHT22;29895;48.804;9.386;2023-05-19T00:38:29;12.60;99.90
44223;DHT22;29895;48.804;9.386;2023-05-19T00:40:55;12.60;99.90
44223;DHT22;29895;48.804;9.386;2023-05-19T00:43:21;12.50;99.90
44223;DHT22;29895;48.804;9.386;2023-05-19T00:45:47;12.50;99.90
44223;DHT22;29895;48.804;9.386;2023-05-19T00:48:12;12.40;99.90
44223;DHT22;29895;48.804;9.386;2023-05-19T00:50:39;12.30;99.90
44223;DHT22;29895;48.804;9.386;2023-05-19T00:53:05;12.30;99.90
44223;DHT22;29895;48.804;9.386;2023-05-19T00:55:32;12.20;99.90
44223;DHT22;29895;48.804;9.386;2023-05-19T00:57:58;12.10;99.90
44223;DHT22;29895;48.804;9.386;2023-05-19T01:00:25;12.10;99.90
44223;DHT22;29895;48.804;9.386;2023-05-19T01:02:50;12.10;99.90
44223;DHT22;29895;48.804;9.386;2023-05-19T01:05:19;12.10;99.90
44223;DHT22;29895;48.804;9.386;2023-05-19T01:07:45;12.00;99.90
44223;DHT22;29895;48.804;9.386;2023-05-19T01:10:11;11.90;99.90
44223;DHT22;29895;48.804;9.386;2023-05-19T01:12:38;11.90;99.90
44223;DHT22;29895;48.804;9.386;2023-05-19T01:15:05;11.80;99.90
44223;DHT22;29895;48.804;9.386;2023-05-19T01:17:43;11.80;99.90
44223;DHT22;29895;48.804;9.386;2023-05-19T01:20:57;11.70;99.90
44223;DHT22;29895;48.804;9.386;2023-05-19T01:23:37;11.70;99.90
44223;DHT22;29895;48.804;9.386;2023-05-19T01:31:32;11.70;99.90
44223;DHT22;29895;48.804;9.386;2023-05-19T01:33:58;11.70;99.90
44223;DHT22;29895;48.804;9.386;2023-05-19T01:36:25;11.70;99.90
44223;DHT22;29895;48.804;9.386;2023-05-19T01:38:54;11.70;99.90
44223;DHT22;29895;48.804;9.386;2023-05-19T01:41:21;11.70;99.90
44223;DHT22;29895;48.804;9.386;2023-05-19T01:43:48;11.70;99.90
44223;DHT22;29895;48.804;9.386;2023-05-19T01:46:14;11.70;99.90
44223;DHT22;29895;48.804;9.386;2023-05-19T01:48:42;11.70;99.90
44223;DHT22;29895;48.804;9.386;2023-05-19T01:51:08;11.70;99.90
44223;DHT22;29895;48.804;9.386;2023-05-19T01:53:34;11.70;99.90
44223;DHT22;29895;48.804;9.386;2023-05-19T01:56:01;11.70;99.90
44223;DHT22;29895;48.804;9.386;2023-05-19T02:01:32;11.70;99.90
44223;DHT22;29895;48.804;9.386;2023-05-19T02:09:11;11.70;99.90
44223;DHT22;29895;48.804;9.386;2023-05-19T02:11:51;11.70;99.90
44223;DHT22;29895;48.804;9.386;2023-05-19T02:14:29;11.70;99.90
44223;DHT22;29895;48.804;9.386;2023-05-19T02:16:57;11.70;99.90
44223;DHT22;29895;48.804;9.386;2023-05-19T02:19:25;11.60;99.90
44223;DHT22;29895;48.804;9.386;2023-05-19T02:21:51;11.60;99.90
44223;DHT22;29895;48.804;9.386;2023-05-19T02:24:18;11.50;99.90
44223;DHT22;29895;48.804;9.386;2023-05-19T02:26:45;11.50;99.90
44223;DHT22;29895;48.804;9.386;2023-05-19T02:29:10;11.50;99.90
44223;DHT22;29895;48.804;9.386;2023-05-19T02:31:36;11.50;99.90
44223;DHT22;29895;48.804;9.386;2023-05-19T02:34:02;11.50;99.90
44223;DHT22;29895;48.804;9.386;2023-05-19T02:36:27;11.40;99.90
44223;DHT22;29895;48.804;9.386;2023-05-19T02:38:53;11.40;99.90
44223;DHT22;29895;48.804;9.386;2023-05-19T02:41:19;11.40;99.90
44223;DHT22;29895;48.804;9.386;2023-05-19T02:43:49;11.30;99.90
44223;DHT22;29895;48.804;9.386;2023-05-19T02:46:15;11.30;99.90
44223;DHT22;29895;48.804;9.386;2023-05-19T02:48:40;11.30;99.90
44223;DHT22;29895;48.804;9.386;2023-05-19T02:51:06;11.30;99.90
44223;DHT22;29895;48.804;9.386;2023-05-19T02:53:31;11.30;99.90
44223;DHT22;29895;48.804;9.386;2023-05-19T02:55:57;11.20;99.90
44223;DHT22;29895;48.804;9.386;2023-05-19T02:58:22;11.20;99.90
44223;DHT22;29895;48.804;9.386;2023-05-19T03:00:48;11.20;99.90
44223;DHT22;29895;48.804;9.386;2023-05-19T03:03:14;11.10;99.90
44223;DHT22;29895;48.804;9.386;2023-05-19T03:05:40;11.10;99.90
44223;DHT22;29895;48.804;9.386;2023-05-19T03:08:05;11.00;99.90
44223;DHT22;29895;48.804;9.386;2023-05-19T03:10:31;11.00;99.90
44223;DHT22;29895;48.804;9.386;2023-05-19T03:12:57;10.90;99.90
44223;DHT22;29895;48.804;9.386;2023-05-19T03:15:22;10.90;99.90
44223;DHT22;29895;48.804;9.386;2023-05-19T03:17:48;10.80;99.90
44223;DHT22;29895;48.804;9.386;2023-05-19T03:20:14;10.70;99.90
44223;DHT22;29895;48.804;9.386;2023-05-19T03:22:40;10.70;99.90
44223;DHT22;29895;48.804;9.386;2023-05-19T03:25:06;10.60;99.90
44223;DHT22;29895;48.804;9.386;2023-05-19T03:27:32;10.60;99.90
44223;DHT22;29895;48.804;9.386;2023-05-19T03:29:57;10.50;99.90
44223;DHT22;29895;48.804;9.386;2023-05-19T03:32:23;10.40;99.90
44223;DHT22;29895;48.804;9.386;2023-05-19T03:34:49;10.40;99.90
44223;DHT22;29895;48.804;9.386;2023-05-19T03:37:14;10.30;99.90
44223;DHT22;29895;48.804;9.386;2023-05-19T03:39:40;10.30;99.90
44223;DHT22;29895;48.804;9.386;2023-05-19T03:42:05;10.20;99.90
44223;DHT22;29895;48.804;9.386;2023-05-19T03:44:31;10.20;99.90
44223;DHT22;29895;48.804;9.386;2023-05-19T03:46:57;10.10;99.90
44223;DHT22;29895;48.804;9.386;2023-05-19T03:49:22;10.10;99.90
44223;DHT22;29895;48.804;9.386;2023-05-19T03:51:48;10.00;99.90
44223;DHT22;29895;48.804;9.386;2023-05-19T03:54:14;10.00;99.90
44223;DHT22;29895;48.804;9.386;2023-05-19T03:56:41;9.90;99.90
44223;DHT22;29895;48.804;9.386;2023-05-19T03:59:07;9.80;99.90
44223;DHT22;29895;48.804;9.386;2023-05-19T04:01:35;9.90;99.90
44223;DHT22;29895;48.804;9.386;2023-05-19T04:04:01;9.90;99.90
44223;DHT22;29895;48.804;9.386;2023-05-19T04:06:26;9.90;99.90
44223;DHT22;29895;48.804;9.386;2023-05-19T04:08:52;9.80;99.90
44223;DHT22;29895;48.804;9.386;2023-05-19T04:11:18;9.90;99.90
44223;DHT22;29895;48.804;9.386;2023-05-19T04:13:46;9.90;99.90
44223;DHT22;29895;48.804;9.386;2023-05-19T04:16:12;10.00;99.90
44223;DHT22;29895;48.804;9.386;2023-05-19T04:18:38;10.00;99.90
44223;DHT22;29895;48.804;9.386;2023-05-19T04:21:03;10.00;99.90
44223;DHT22;29895;48.804;9.386;2023-05-19T04:23:29;10.10;99.90
44223;DHT22;29895;48.804;9.386;2023-05-19T04:25:56;10.10;99.90
44223;DHT22;29895;48.804;9.386;2023-05-19T04:28:22;10.10;99.90
44223;DHT22;29895;48.804;9.386;2023-05-19T04:30:48;10.20;99.90
44223;DHT22;29895;48.804;9.386;2023-05-19T04:33:15;10.30;99.90
44223;DHT22;29895;48.804;9.386;2023-05-19T04:35:41;10.40;99.90
44223;DHT22;29895;48.804;9.386;2023-05-19T04:38:08;10.40;99.90
44223;DHT22;29895;48.804;9.386;2023-05-19T04:40:34;10.40;99.90
44223;DHT22;29895;48.804;9.386;2023-05-19T04:43:00;10.50;99.90
44223;DHT22;29895;48.804;9.386;2023-05-19T04:45:26;10.50;99.90
44223;DHT22;29895;48.804;9.386;2023-05-19T04:47:52;10.60;99.90
44223;DHT22;29895;48.804;9.386;2023-05-19T04:50:22;10.60;99.90
44223;DHT22;29895;48.804;9.386;2023-05-19T04:52:48;10.70;99.90
44223;DHT22;29895;48.804;9.386;2023-05-19T04:55:13;10.70;99.90
44223;DHT22;29895;48.804;9.386;2023-05-19T04:57:39;10.80;99.90
44223;DHT22;29895;48.804;9.386;2023-05-19T05:00:06;10.90;99.90
44223;DHT22;29895;48.804;9.386;2023-05-19T05:02:38;11.00;99.90
44223;DHT22;29895;48.804;9.386;2023-05-19T05:05:07;11.10;99.90
44223;DHT22;29895;48.804;9.386;2023-05-19T05:07:32;11.30;99.90
44223;DHT22;29895;48.804;9.386;2023-05-19T05:09:58;11.60;99.90
44223;DHT22;29895;48.804;9.386;2023-05-19T05:12:24;11.80;99.90
44223;DHT22;29895;48.804;9.386;2023-05-19T05:14:50;12.00;99.90
44223;DHT22;29895;48.804;9.386;2023-05-19T05:17:16;12.30;99.90
44223;DHT22;29895;48.804;9.386;2023-05-19T05:19:42;12.60;99.90
44223;DHT22;29895;48.804;9.386;2023-05-19T05:22:08;12.90;99.90
44223;DHT22;29895;48.804;9.386;2023-05-19T05:24:34;13.10;99.90
44223;DHT22;29895;48.804;9.386;2023-05-19T05:26:59;13.20;99.90
44223;DHT22;29895;48.804;9.386;2023-05-19T05:29:25;13.40;99.90
44223;DHT22;29895;48.804;9.386;2023-05-19T05:31:51;13.60;99.90
44223;DHT22;29895;48.804;9.386;2023-05-19T05:34:17;13.60;99.90
44223;DHT22;29895;48.804;9.386;2023-05-19T05:36:42;13.80;99.90
44223;DHT22;29895;48.804;9.386;2023-05-19T05:39:08;14.00;99.90
44223;DHT22;29895;48.804;9.386;2023-05-19T05:41:34;14.10;99.90
44223;DHT22;29895;48.804;9.386;2023-05-19T05:44:03;14.30;99.90
44223;DHT22;29895;48.804;9.386;2023-05-19T05:46:29;14.40;99.90
44223;DHT22;29895;48.804;9.386;2023-05-19T05:48:54;14.60;99.90
44223;DHT22;29895;48.804;9.386;2023-05-19T05:51:23;15.00;99.90
44223;DHT22;29895;48.804;9.386;2023-05-19T05:53:53;14.60;99.90
44223;DHT22;29895;48.804;9.386;2023-05-19T05:56:20;14.70;99.90
44223;DHT22;29895;48.804;9.386;2023-05-19T05:58:46;15.00;99.90
44223;DHT22;29895;48.804;9.386;2023-05-19T06:01:12;15.00;99.90
44223;DHT22;29895;48.804;9.386;2023-05-19T06:03:40;14.90;99.90
44223;DHT22;29895;48.804;9.386;2023-05-19T06:06:06;14.80;99.90
44223;DHT22;29895;48.804;9.386;2023-05-19T06:08:32;14.90;99.90
44223;DHT22;29895;48.804;9.386;2023-05-19T06:10:57;15.20;99.90
44223;DHT22;29895;48.804;9.386;2023-05-19T06:13:23;15.50;99.90
44223;DHT22;29895;48.804;9.386;2023-05-19T06:15:50;15.80;99.90
44223;DHT22;29895;48.804;9.386;2023-05-19T06:18:16;15.70;99.90
44223;DHT22;29895;48.804;9.386;2023-05-19T06:20:42;15.70;99.90
44223;DHT22;29895;48.804;9.386;2023-05-19T06:23:08;16.10;99.90
44223;DHT22;29895;48.804;9.386;2023-05-19T06:25:33;16.20;99.90
44223;DHT22;29895;48.804;9.386;2023-05-19T06:27:59;16.10;99.90
44223;DHT22;29895;48.804;9.386;2023-05-19T06:30:25;16.20;99.90
44223;DHT22;29895;48.804;9.386;2023-05-19T06:32:50;16.50;99.90
44223;DHT22;29895;48.804;9.386;2023-05-19T06:35:16;16.70;99.90
44223;DHT22;29895;48.804;9.386;2023-05-19T06:37:42;16.80;99.90
44223;DHT22;29895;48.804;9.386;2023-05-19T06:40:08;16.80;99.90
44223;DHT22;29895;48.804;9.386;2023-05-19T06:42:33;16.70;99.90
44223;DHT22;29895;48.804;9.386;2023-05-19T06:44:59;16.10;99.90
44223;DHT22;29895;48.804;9.386;2023-05-19T06:47:25;15.70;99.90
44223;DHT22;29895;48.804;9.386;2023-05-19T06:49:50;15.70;99.90
44223;DHT22;29895;48.804;9.386;2023-05-19T06:52:20;15.60;99.90
44223;DHT22;29895;48.804;9.386;2023-05-19T06:54:46;15.40;99.90
44223;DHT22;29895;48.804;9.386;2023-05-19T06:57:13;15.00;99.90
44223;DHT22;29895;48.804;9.386;2023-05-19T06:59:38;15.10;99.90
44223;DHT22;29895;48.804;9.386;2023-05-19T07:02:06;15.60;99.90
44223;DHT22;29895;48.804;9.386;2023-05-19T07:04:32;15.40;99.90
44223;DHT22;29895;48.804;9.386;2023-05-19T07:06:58;15.20;99.90
44223;DHT22;29895;48.804;9.386;2023-05-19T07:09:23;15.00;99.90
44223;DHT22;29895;48.804;9.386;2023-05-19T07:11:49;14.70;99.90
44223;DHT22;29895;48.804;9.386;2023-05-19T07:14:15;14.60;99.90
44223;DHT22;29895;48.804;9.386;2023-05-19T07:16:40;14.40;99.90
44223;DHT22;29895;48.804;9.386;2023-05-19T07:19:06;14.20;99.90
44223;DHT22;29895;48.804;9.386;2023-05-19T07:21:32;14.30;99.90
44223;DHT22;29895;48.804;9.386;2023-05-19T07:23:57;14.60;99.90
44223;DHT22;29895;48.804;9.386;2023-05-19T07:26:23;14.90;99.90
44223;DHT22;29895;48.804;9.386;2023-05-19T07:28:49;14.90;99.90
44223;DHT22;29895;48.804;9.386;2023-05-19T07:31:16;14.90;99.90
44223;DHT22;29895;48.804;9.386;2023-05-19T07:33:41;15.00;99.90
44223;DHT22;29895;48.804;9.386;2023-05-19T07:36:07;15.00;99.90
44223;DHT22;29895;48.804;9.386;2023-05-19T07:38:33;14.90;99.90
44223;DHT22;29895;48.804;9.386;2023-05-19T07:40:59;14.80;99.90
44223;DHT22;29895;48.804;9.386;2023-05-19T07:43:25;14.80;99.90
44223;DHT22;29895;48.804;9.386;2023-05-19T07:45:51;14.60;99.90
44223;DHT22;29895;48.804;9.386;2023-05-19T07:48:18;14.60;99.90
44223;DHT22;29895;48.804;9.386;2023-05-19T07:50:50;14.80;99.90
44223;DHT22;29895;48.804;9.386;2023-05-19T07:53:15;14.80;99.90
44223;DHT22;29895;48.804;9.386;2023-05-19T07:55:41;14.60;99.90
44223;DHT22;29895;48.804;9.386;2023-05-19T07:58:07;14.30;99.90
44223;DHT22;29895;48.804;9.386;2023-05-19T08:00:32;14.10;99.90
44223;DHT22;29895;48.804;9.386;2023-05-19T08:02:59;14.20;99.90
44223;DHT22;29895;48.804;9.386;2023-05-19T08:05:24;14.30;99.90
44223;DHT22;29895;48.804;9.386;2023-05-19T08:07:50;14.50;99.90
44223;DHT22;29895;48.804;9.386;2023-05-19T08:10:16;14.70;99.90
44223;DHT22;29895;48.804;9.386;2023-05-19T08:12:42;14.80;99.90
44223;DHT22;29895;48.804;9.386;2023-05-19T08:15:08;14.90;99.90
44223;DHT22;29895;48.804;9.386;2023-05-19T08:17:36;15.10;99.90
44223;DHT22;29895;48.804;9.386;2023-05-19T08:20:02;15.30;99.90
44223;DHT22;29895;48.804;9.386;2023-05-19T08:22:30;15.40;99.90
44223;DHT22;29895;48.804;9.386;2023-05-19T08:24:55;15.30;99.90
44223;DHT22;29895;48.804;9.386;2023-05-19T08:27:21;15.00;99.90
44223;DHT22;29895;48.804;9.386;2023-05-19T08:29:47;15.00;99.90
44223;DHT22;29895;48.804;9.386;2023-05-19T08:32:12;15.20;99.90
44223;DHT22;29895;48.804;9.386;2023-05-19T08:34:38;15.50;99.90
44223;DHT22;29895;48.804;9.386;2023-05-19T08:37:03;15.60;99.90
44223;DHT22;29895;48.804;9.386;2023-05-19T08:39:29;15.50;99.90
44223;DHT22;29895;48.804;9.386;2023-05-19T08:41:57;15.60;99.90
44223;DHT22;29895;48.804;9.386;2023-05-19T08:44:23;15.60;99.90
44223;DHT22;29895;48.804;9.386;2023-05-19T08:46:49;15.70;99.90
44223;DHT22;29895;48.804;9.386;2023-05-19T08:49:21;15.60;99.90
44223;DHT22;29895;48.804;9.386;2023-05-19T08:52:13;15.60;99.90
44223;DHT22;29895;48.804;9.386;2023-05-19T08:54:59;15.50;99.90
44223;DHT22;29895;48.804;9.386;2023-05-19T08:57:29;15.10;99.90
44223;DHT22;29895;48.804;9.386;2023-05-19T08:59:55;15.00;99.90
44223;DHT22;29895;48.804;9.386;2023-05-19T09:02:22;14.70;99.90
44223;DHT22;29895;48.804;9.386;2023-05-19T09:04:48;14.80;99.90
44223;DHT22;29895;48.804;9.386;2023-05-19T09:07:14;15.10;99.90
44223;DHT22;29895;48.804;9.386;2023-05-19T09:09:41;15.40;99.90
44223;DHT22;29895;48.804;9.386;2023-05-19T09:12:11;15.60;99.90
44223;DHT22;29895;48.804;9.386;2023-05-19T09:14:37;15.50;99.90
44223;DHT22;29895;48.804;9.386;2023-05-19T09:17:04;15.30;99.90
44223;DHT22;29895;48.804;9.386;2023-05-19T09:19:30;14.90;99.90
44223;DHT22;29895;48.804;9.386;2023-05-19T09:22:00;15.10;99.90
44223;DHT22;29895;48.804;9.386;2023-05-19T09:24:28;15.20;99.90
44223;DHT22;29895;48.804;9.386;2023-05-19T09:26:55;15.20;99.90
44223;DHT22;29895;48.804;9.386;2023-05-19T09:29:23;15.30;99.90
44223;DHT22;29895;48.804;9.386;2023-05-19T09:34:16;15.60;99.90
44223;DHT22;29895;48.804;9.386;2023-05-19T09:36:42;15.70;99.90
44223;DHT22;29895;48.804;9.386;2023-05-19T09:39:15;15.90;99.90
44223;DHT22;29895;48.804;9.386;2023-05-19T09:41:41;15.30;99.90
44223;DHT22;29895;48.804;9.386;2023-05-19T09:44:33;15.20;99.90
44223;DHT22;29895;48.804;9.386;2023-05-19T09:46:58;15.40;99.90
44223;DHT22;29895;48.804;9.386;2023-05-19T09:49:27;15.40;99.90
44223;DHT22;29895;48.804;9.386;2023-05-19T09:52:03;15.40;99.90
44223;DHT22;29895;48.804;9.386;2023-05-19T09:54:30;15.20;99.90
44223;DHT22;29895;48.804;9.386;2023-05-19T09:56:59;15.10;99.90
44223;DHT22;29895;48.804;9.386;2023-05-19T09:59:26;15.10;99.90
44223;DHT22;29895;48.804;9.386;2023-05-19T10:01:56;15.20;99.90
44223;DHT22;29895;48.804;9.386;2023-05-19T10:04:26;15.20;99.90
44223;DHT22;29895;48.804;9.386;2023-05-19T10:06:53;15.40;99.90
44223;DHT22;29895;48.804;9.386;2023-05-19T10:09:28;15.50;99.90
44223;DHT22;29895;48.804;9.386;2023-05-19T10:11:57;15.30;99.90
44223;DHT22;29895;48.804;9.386;2023-05-19T10:16:53;15.10;99.90
44223;DHT22;29895;48.804;9.386;2023-05-19T10:19:24;15.30;99.90
44223;DHT22;29895;48.804;9.386;2023-05-19T10:21:51;15.40;99.90
44223;DHT22;29895;48.804;9.386;2023-05-19T10:24:18;15.20;99.90
44223;DHT22;29895;48.804;9.386;2023-05-19T10:27:31;15.20;99.90
44223;DHT22;29895;48.804;9.386;2023-05-19T10:29:35;15.00;99.90
44223;DHT22;29895;48.804;9.386;2023-05-19T10:32:09;14.90;99.90
44223;DHT22;29895;48.804;9.386;2023-05-19T10:40:26;15.30;99.90
44223;DHT22;29895;48.804;9.386;2023-05-19T10:45:22;15.10;99.90
44223;DHT22;29895;48.804;9.386;2023-05-19T10:47:51;14.90;99.90
44223;DHT22;29895;48.804;9.386;2023-05-19T10:50:17;14.90;99.90
44223;DHT22;29895;48.804;9.386;2023-05-19T10:52:42;15.30;99.90
44223;DHT22;29895;48.804;9.386;2023-05-19T10:55:11;15.30;99.90
44223;DHT22;29895;48.804;9.386;2023-05-19T10:57:53;15.30;99.90
44223;DHT22;29895;48.804;9.386;2023-05-19T11:00:28;15.60;99.90
44223;DHT22;29895;48.804;9.386;2023-05-19T11:03:14;15.40;99.90
44223;DHT22;29895;48.804;9.386;2023-05-19T11:05:39;15.50;99.90
44223;DHT22;29895;48.804;9.386;2023-05-19T11:08:06;15.50;99.90
44223;DHT22;29895;48.804;9.386;2023-05-19T11:10:33;15.40;99.90
44223;DHT22;29895;48.804;9.386;2023-05-19T11:12:59;15.50;99.90
44223;DHT22;29895;48.804;9.386;2023-05-19T11:15:26;15.70;99.90
44223;DHT22;29895;48.804;9.386;2023-05-19T11:17:54;15.80;99.90
44223;DHT22;29895;48.804;9.386;2023-05-19T11:20:25;15.70;99.90
44223;DHT22;29895;48.804;9.386;2023-05-19T11:23:03;15.60;99.90
44223;DHT22;29895;48.804;9.386;2023-05-19T11:25:47;15.60;99.90
44223;DHT22;29895;48.804;9.386;2023-05-19T11:28:18;15.50;99.90
44223;DHT22;29895;48.804;9.386;2023-05-19T11:30:46;15.30;99.90
44223;DHT22;29895;48.804;9.386;2023-05-19T11:33:15;15.20;99.90
44223;DHT22;29895;48.804;9.386;2023-05-19T11:35:46;15.30;99.90
44223;DHT22;29895;48.804;9.386;2023-05-19T11:38:13;15.30;99.90
44223;DHT22;29895;48.804;9.386;2023-05-19T11:40:41;15.10;99.90
44223;DHT22;29895;48.804;9.386;2023-05-19T11:43:06;15.10;99.90
44223;DHT22;29895;48.804;9.386;2023-05-19T11:45:33;15.30;99.90
44223;DHT22;29895;48.804;9.386;2023-05-19T11:47:59;15.20;99.90
44223;DHT22;29895;48.804;9.386;2023-05-19T11:50:28;15.10;99.90
44223;DHT22;29895;48.804;9.386;2023-05-19T11:52:55;15.10;99.90
44223;DHT22;29895;48.804;9.386;2023-05-19T11:55:22;15.20;99.90
44223;DHT22;29895;48.804;9.386;2023-05-19T11:57:57;15.30;99.90
44223;DHT22;29895;48.804;9.386;2023-05-19T12:00:27;15.50;99.90
44223;DHT22;29895;48.804;9.386;2023-05-19T12:02:53;15.70;99.90
44223;DHT22;29895;48.804;9.386;2023-05-19T12:05:21;15.60;99.90
44223;DHT22;29895;48.804;9.386;2023-05-19T12:07:47;15.50;99.90
44223;DHT22;29895;48.804;9.386;2023-05-19T12:10:26;15.50;99.90
44223;DHT22;29895;48.804;9.386;2023-05-19T12:12:53;15.60;99.90
44223;DHT22;29895;48.804;9.386;2023-05-19T12:15:20;15.70;99.90
44223;DHT22;29895;48.804;9.386;2023-05-19T12:17:57;15.60;99.90
44223;DHT22;29895;48.804;9.386;2023-05-19T12:20:26;15.60;99.90
44223;DHT22;29895;48.804;9.386;2023-05-19T12:22:55;16.00;99.90
44223;DHT22;29895;48.804;9.386;2023-05-19T12:25:22;16.40;99.90
44223;DHT22;29895;48.804;9.386;2023-05-19T12:27:47;16.70;99.90
44223;DHT22;29895;48.804;9.386;2023-05-19T12:30:15;16.80;99.90
44223;DHT22;29895;48.804;9.386;2023-05-19T12:32:41;16.90;99.90
44223;DHT22;29895;48.804;9.386;2023-05-19T12:35:08;17.00;99.90
44223;DHT22;29895;48.804;9.386;2023-05-19T12:37:36;16.90;99.90
44223;DHT22;29895;48.804;9.386;2023-05-19T12:40:05;16.80;99.90
44223;DHT22;29895;48.804;9.386;2023-05-19T12:42:31;16.90;99.90
44223;DHT22;29895;48.804;9.386;2023-05-19T12:44:58;16.90;99.90
44223;DHT22;29895;48.804;9.386;2023-05-19T12:47:32;17.00;99.90
44223;DHT22;29895;48.804;9.386;2023-05-19T12:52:25;16.70;99.90
44223;DHT22;29895;48.804;9.386;2023-05-19T12:55:02;16.80;99.90
44223;DHT22;29895;48.804;9.386;2023-05-19T12:57:30;16.80;99.90
44223;DHT22;29895;48.804;9.386;2023-05-19T13:02:26;16.30;99.90
44223;DHT22;29895;48.804;9.386;2023-05-19T13:04:52;16.30;99.90
44223;DHT22;29895;48.804;9.386;2023-05-19T13:07:19;16.30;99.90
44223;DHT22;29895;48.804;9.386;2023-05-19T13:09:45;16.40;99.90
44223;DHT22;29895;48.804;9.386;2023-05-19T13:12:12;16.40;99.90
44223;DHT22;29895;48.804;9.386;2023-05-19T13:14:38;16.40;99.90
44223;DHT22;29895;48.804;9.386;2023-05-19T13:17:06;16.30;99.90
44223;DHT22;29895;48.804;9.386;2023-05-19T13:19:31;16.00;99.90
44223;DHT22;29895;48.804;9.386;2023-05-19T13:21:57;16.10;99.90
44223;DHT22;29895;48.804;9.386;2023-05-19T13:24:23;16.20;99.90
44223;DHT22;29895;48.804;9.386;2023-05-19T13:26:49;16.50;99.90
44223;DHT22;29895;48.804;9.386;2023-05-19T13:29:14;16.80;99.90
44223;DHT22;29895;48.804;9.386;2023-05-19T13:31:40;17.20;99.90
44223;DHT22;29895;48.804;9.386;2023-05-19T13:34:07;17.40;99.90
44223;DHT22;29895;48.804;9.386;2023-05-19T13:36:32;17.70;99.90
44223;DHT22;29895;48.804;9.386;2023-05-19T13:38:59;18.00;99.80
44223;DHT22;29895;48.804;9.386;2023-05-19T13:41:25;17.90;99.60
44223;DHT22;29895;48.804;9.386;2023-05-19T13:43:51;17.60;99.70
44223;DHT22;29895;48.804;9.386;2023-05-19T13:46:17;17.10;99.90
44223;DHT22;29895;48.804;9.386;2023-05-19T13:48:43;16.70;99.90
44223;DHT22;29895;48.804;9.386;2023-05-19T13:51:09;16.80;99.90
44223;DHT22;29895;48.804;9.386;2023-05-19T13:53:34;16.90;99.90
44223;DHT22;29895;48.804;9.386;2023-05-19T13:56:00;16.80;99.90
44223;DHT22;29895;48.804;9.386;2023-05-19T13:58:27;16.80;99.90
44223;DHT22;29895;48.804;9.386;2023-05-19T14:00:53;16.70;99.90
44223;DHT22;29895;48.804;9.386;2023-05-19T14:03:21;16.50;99.90
44223;DHT22;29895;48.804;9.386;2023-05-19T14:05:47;16.50;99.90
44223;DHT22;29895;48.804;9.386;2023-05-19T14:08:14;16.60;99.90
44223;DHT22;29895;48.804;9.386;2023-05-19T14:10:40;16.70;99.90
44223;DHT22;29895;48.804;9.386;2023-05-19T14:13:07;16.60;99.90
44223;DHT22;29895;48.804;9.386;2023-05-19T14:15:34;16.40;99.90
44223;DHT22;29895;48.804;9.386;2023-05-19T14:18:02;16.40;99.90
44223;DHT22;29895;48.804;9.386;2023-05-19T14:20:27;16.50;99.90
44223;DHT22;29895;48.804;9.386;2023-05-19T14:22:53;16.60;99.90
44223;DHT22;29895;48.804;9.386;2023-05-19T14:25:20;16.50;99.90
44223;DHT22;29895;48.804;9.386;2023-05-19T14:27:45;16.40;99.90
44223;DHT22;29895;48.804;9.386;2023-05-19T14:30:11;16.40;99.90
44223;DHT22;29895;48.804;9.386;2023-05-19T14:32:37;16.20;99.90
44223;DHT22;29895;48.804;9.386;2023-05-19T14:35:03;15.90;99.90
44223;DHT22;29895;48.804;9.386;2023-05-19T14:37:29;16.00;99.90
44223;DHT22;29895;48.804;9.386;2023-05-19T14:39:56;16.00;99.90
44223;DHT22;29895;48.804;9.386;2023-05-19T14:42:22;15.90;99.90
44223;DHT22;29895;48.804;9.386;2023-05-19T14:44:48;16.00;99.90
44223;DHT22;29895;48.804;9.386;2023-05-19T14:47:13;15.90;99.90
44223;DHT22;29895;48.804;9.386;2023-05-19T14:49:39;16.10;99.90
44223;DHT22;29895;48.804;9.386;2023-05-19T14:52:05;16.20;99.90
44223;DHT22;29895;48.804;9.386;2023-05-19T14:54:30;16.10;99.90
44223;DHT22;29895;48.804;9.386;2023-05-19T14:56:56;16.00;99.90
44223;DHT22;29895;48.804;9.386;2023-05-19T14:59:21;15.90;99.90
44223;DHT22;29895;48.804;9.386;2023-05-19T15:01:47;16.00;99.90
44223;DHT22;29895;48.804;9.386;2023-05-19T15:04:13;16.20;99.90
44223;DHT22;29895;48.804;9.386;2023-05-19T15:06:38;16.10;99.90
44223;DHT22;29895;48.804;9.386;2023-05-19T15:09:04;16.10;99.90
44223;DHT22;29895;48.804;9.386;2023-05-19T15:11:29;16.10;99.90
44223;DHT22;29895;48.804;9.386;2023-05-19T15:13:55;16.00;99.90
44223;DHT22;29895;48.804;9.386;2023-05-19T15:16:21;16.00;99.90
44223;DHT22;29895;48.804;9.386;2023-05-19T15:18:46;16.10;99.90
44223;DHT22;29895;48.804;9.386;2023-05-19T15:21:12;15.90;99.90
44223;DHT22;29895;48.804;9.386;2023-05-19T15:23:38;16.00;99.90
44223;DHT22;29895;48.804;9.386;2023-05-19T15:26:03;16.10;99.90
44223;DHT22;29895;48.804;9.386;2023-05-19T15:28:29;16.20;99.90
44223;DHT22;29895;48.804;9.386;2023-05-19T15:30:55;16.40;99.90
44223;DHT22;29895;48.804;9.386;2023-05-19T15:33:20;16.50;99.90
44223;DHT22;29895;48.804;9.386;2023-05-19T15:35:46;16.50;99.90
44223;DHT22;29895;48.804;9.386;2023-05-19T15:38:16;16.40;99.90
44223;DHT22;29895;48.804;9.386;2023-05-19T15:40:43;16.30;99.90
44223;DHT22;29895;48.804;9.386;2023-05-19T15:43:08;16.30;99.90
44223;DHT22;29895;48.804;9.386;2023-05-19T15:45:34;16.30;99.90
44223;DHT22;29895;48.804;9.386;2023-05-19T15:48:00;16.30;99.90
44223;DHT22;29895;48.804;9.386;2023-05-19T15:50:25;16.40;99.90
44223;DHT22;29895;48.804;9.386;2023-05-19T15:52:51;16.40;99.90
44223;DHT22;29895;48.804;9.386;2023-05-19T15:55:17;16.30;99.90
44223;DHT22;29895;48.804;9.386;2023-05-19T15:57:42;16.40;99.90
44223;DHT22;29895;48.804;9.386;2023-05-19T16:00:08;16.50;99.90
44223;DHT22;29895;48.804;9.386;2023-05-19T16:02:34;16.60;99.90